Time;durP1;ratioP1;P1;durP2;ratioP2;P2;SDS_P1;SDS_P2;PMS_P1;PMS_P2;Temp;Humidity;BMP_temperature;BMP_pressure;BME280_temperature;BME280_humidity;BME280_pressure;Samples;Min_cycle;Max_cycle;Signal;HPM_P1;HPM_P2
2022/03/29 00:02:21;;;;;;;11.57;6.00;;;9.00;99.90;;;;;;4436980;32;20197;-68
2022/03/29 00:04:48;;;;;;;14.07;6.10;;;9.00;99.90;;;;;;4438000;32;20421;-68
2022/03/29 00:07:15;;;;;;;11.97;6.67;;;8.90;99.90;;;;;;4438977;32;20190;-68
2022/03/29 00:09:42;;;;;;;11.13;5.77;;;8.90;99.90;;;;;;4438041;32;20472;-67
2022/03/29 00:12:09;;;;;;;11.57;6.20;;;8.90;99.90;;;;;;4437056;32;20427;-68
2022/03/29 00:14:36;;;;;;;12.13;6.13;;;8.80;99.90;;;;;;4437323;32;20605;-68
2022/03/29 00:17:04;;;;;;;10.80;6.20;;;8.80;99.90;;;;;;4438237;32;20188;-68
2022/03/29 00:19:31;;;;;;;10.37;5.70;;;8.80;99.90;;;;;;4437125;32;20249;-68
2022/03/29 00:21:58;;;;;;;13.60;5.90;;;8.70;99.90;;;;;;4439087;32;20429;-68
2022/03/29 00:24:25;;;;;;;9.97;5.83;;;8.70;99.90;;;;;;4440106;32;20150;-68
2022/03/29 00:26:52;;;;;;;12.17;6.23;;;8.70;99.90;;;;;;4437101;32;20567;-68
2022/03/29 00:29:19;;;;;;;11.80;5.73;;;8.80;99.90;;;;;;4437166;32;20175;-68
2022/03/29 00:31:46;;;;;;;12.37;6.03;;;8.80;99.90;;;;;;4438819;32;20531;-68
2022/03/29 00:34:13;;;;;;;18.97;6.83;;;8.70;99.90;;;;;;4438092;32;20142;-68
2022/03/29 00:36:40;;;;;;;13.20;6.30;;;8.60;99.90;;;;;;4437749;32;20178;-68
2022/03/29 00:39:09;;;;;;;13.60;6.17;;;8.60;99.90;;;;;;4436778;32;20604;-68
2022/03/29 00:41:36;;;;;;;14.27;6.70;;;8.50;99.90;;;;;;4436484;32;20433;-68
2022/03/29 00:44:05;;;;;;;10.13;5.80;;;8.60;99.90;;;;;;4438313;32;20429;-68
2022/03/29 00:46:35;;;;;;;13.93;6.80;;;8.50;99.90;;;;;;4435957;32;20208;-68
2022/03/29 00:49:03;;;;;;;13.67;7.00;;;8.40;99.90;;;;;;4436950;32;20548;-68
2022/03/29 00:51:30;;;;;;;14.10;7.20;;;8.40;99.90;;;;;;4438018;32;20465;-68
2022/03/29 00:53:57;;;;;;;14.73;6.97;;;8.30;99.90;;;;;;4437807;32;20588;-68
2022/03/29 00:56:23;;;;;;;17.57;6.90;;;8.30;99.90;;;;;;4437383;32;20192;-68
2022/03/29 00:58:51;;;;;;;14.83;6.63;;;8.30;99.90;;;;;;4436393;32;20239;-68
2022/03/29 01:01:18;;;;;;;12.80;6.47;;;8.30;99.90;;;;;;4436673;32;20167;-68
2022/03/29 01:03:47;;;;;;;12.90;6.70;;;8.20;99.90;;;;;;4391854;32;20207;-68
2022/03/29 01:06:16;;;;;;;13.53;6.70;;;8.20;99.90;;;;;;4405500;32;20260;-68
2022/03/29 01:08:44;;;;;;;13.37;7.10;;;8.20;99.90;;;;;;4392217;32;20175;-68
2022/03/29 01:11:12;;;;;;;12.47;6.73;;;8.20;99.90;;;;;;4392144;32;20552;-67
2022/03/29 01:13:41;;;;;;;13.20;6.77;;;8.20;99.90;;;;;;4392073;32;20558;-68
2022/03/29 01:18:57;;;;;;;14.50;7.10;;;8.20;99.90;;;;;;4404250;32;20616;-68
2022/03/29 01:21:29;;;;;;;12.63;7.30;;;8.10;99.90;;;;;;4403266;32;20338;-68
2022/03/29 01:23:56;;;;;;;14.03;7.10;;;8.00;99.90;;;;;;4438941;32;20231;-68
2022/03/29 01:26:24;;;;;;;14.37;7.17;;;8.00;99.90;;;;;;4437802;32;20147;-68
2022/03/29 01:28:51;;;;;;;11.83;6.27;;;7.90;99.90;;;;;;4435760;32;20166;-68
2022/03/29 01:31:18;;;;;;;15.27;6.90;;;7.80;99.90;;;;;;4437543;32;20186;-68
2022/03/29 01:33:45;;;;;;;12.87;7.00;;;7.80;99.90;;;;;;4436741;32;20628;-68
2022/03/29 01:36:12;;;;;;;14.17;6.87;;;7.80;99.90;;;;;;4438666;32;20527;-68
2022/03/29 01:38:40;;;;;;;14.17;7.13;;;7.80;99.90;;;;;;4439227;32;20174;-68
2022/03/29 01:41:07;;;;;;;14.80;7.20;;;7.80;99.90;;;;;;4437852;32;20285;-68
2022/03/29 01:43:34;;;;;;;16.07;7.10;;;7.70;99.90;;;;;;4438684;32;20524;-68
2022/03/29 01:46:01;;;;;;;11.70;6.50;;;7.70;99.90;;;;;;4438913;32;20178;-68
2022/03/29 01:48:28;;;;;;;11.43;6.17;;;7.70;99.90;;;;;;4439164;32;20257;-68
2022/03/29 01:50:55;;;;;;;12.40;6.80;;;7.80;99.90;;;;;;4437335;32;20516;-68
2022/03/29 01:53:27;;;;;;;13.67;6.73;;;7.70;99.90;;;;;;4439334;32;20154;-68
2022/03/29 01:55:59;;;;;;;13.13;6.60;;;7.70;99.90;;;;;;4437273;32;20188;-68
2022/03/29 01:58:29;;;;;;;14.77;6.57;;;7.70;99.90;;;;;;4440320;32;20525;-68
2022/03/29 02:00:57;;;;;;;12.87;5.93;;;7.70;99.90;;;;;;4440473;32;20214;-68
2022/03/29 02:03:24;;;;;;;14.37;6.90;;;7.70;99.90;;;;;;4440417;32;20237;-68
2022/03/29 02:05:52;;;;;;;14.43;6.80;;;7.70;99.90;;;;;;4442202;32;20413;-68
2022/03/29 02:08:20;;;;;;;14.57;7.23;;;7.60;99.90;;;;;;4442231;32;20423;-68
2022/03/29 02:10:46;;;;;;;16.57;7.50;;;7.60;99.90;;;;;;4442047;32;20484;-68
2022/03/29 02:13:14;;;;;;;15.40;7.50;;;7.60;99.90;;;;;;4442187;32;20187;-68
2022/03/29 02:15:41;;;;;;;13.97;7.70;;;7.60;99.90;;;;;;4441723;32;20245;-68
2022/03/29 02:18:08;;;;;;;14.53;7.10;;;7.50;99.90;;;;;;4440191;32;20193;-68
2022/03/29 02:20:35;;;;;;;15.97;7.50;;;7.40;99.90;;;;;;4442005;32;20135;-68
2022/03/29 02:23:07;;;;;;;16.43;7.67;;;7.30;99.90;;;;;;4441171;32;20186;-68
2022/03/29 02:25:35;;;;;;;13.90;6.73;;;7.30;99.90;;;;;;4442133;32;20192;-69
2022/03/29 02:28:03;;;;;;;14.63;7.63;;;7.30;99.90;;;;;;4440433;32;20250;-68
2022/03/29 02:30:32;;;;;;;14.77;7.73;;;7.30;99.90;;;;;;4441864;32;20190;-68
2022/03/29 02:33:01;;;;;;;14.43;7.57;;;7.10;99.90;;;;;;4441412;32;20174;-68
2022/03/29 02:35:29;;;;;;;16.47;7.80;;;7.10;99.90;;;;;;4439627;32;20169;-68
2022/03/29 02:37:56;;;;;;;15.33;7.27;;;7.00;99.90;;;;;;4442306;32;20546;-68
2022/03/29 02:40:23;;;;;;;15.00;7.30;;;7.10;99.90;;;;;;4440820;32;20181;-68
2022/03/29 02:42:52;;;;;;;14.73;7.43;;;7.10;99.90;;;;;;4441430;32;20219;-68
2022/03/29 02:45:25;;;;;;;12.97;7.17;;;7.10;99.90;;;;;;4440364;32;20497;-68
2022/03/29 02:47:58;;;;;;;13.37;7.53;;;7.10;99.90;;;;;;4440633;32;20166;-68
2022/03/29 02:50:25;;;;;;;14.77;7.37;;;7.00;99.90;;;;;;4439651;32;20181;-68
2022/03/29 02:52:55;;;;;;;13.20;7.30;;;7.10;99.90;;;;;;4440589;32;20410;-68
2022/03/29 02:55:27;;;;;;;18.70;8.47;;;7.10;99.90;;;;;;4442846;32;20151;-68
2022/03/29 02:57:54;;;;;;;15.30;7.97;;;7.00;99.90;;;;;;4441322;32;20143;-68
2022/03/29 03:00:21;;;;;;;16.33;8.03;;;7.00;99.90;;;;;;4441656;32;20146;-68
2022/03/29 03:02:51;;;;;;;16.90;7.73;;;6.90;99.90;;;;;;4440604;32;20198;-68
2022/03/29 03:05:21;;;;;;;14.70;7.77;;;6.80;99.90;;;;;;4440089;32;20169;-68
2022/03/29 03:07:48;;;;;;;14.17;8.17;;;6.80;99.90;;;;;;4440687;32;20224;-68
2022/03/29 03:10:16;;;;;;;18.40;8.37;;;6.80;99.90;;;;;;4441868;32;20526;-68
2022/03/29 03:12:47;;;;;;;14.70;7.70;;;6.80;99.90;;;;;;4439185;32;20170;-68
2022/03/29 03:15:18;;;;;;;16.63;7.90;;;6.80;99.90;;;;;;4439513;32;20177;-68
2022/03/29 03:17:45;;;;;;;17.77;7.83;;;6.60;99.90;;;;;;4441503;32;20177;-68
2022/03/29 03:20:12;;;;;;;14.97;8.27;;;6.50;99.90;;;;;;4441291;32;20232;-69
2022/03/29 03:22:41;;;;;;;17.13;8.60;;;6.50;99.90;;;;;;4439831;32;20201;-68
2022/03/29 03:27:26;;;;;;;14.70;8.37;;;6.50;99.90;;;;;;4484517;31;20282;-68
2022/03/29 03:29:53;;;;;;;16.43;8.33;;;6.50;99.90;;;;;;4469452;32;20141;-68
2022/03/29 03:32:20;;;;;;;17.23;8.73;;;6.50;99.90;;;;;;4468318;32;20149;-68
2022/03/29 03:34:47;;;;;;;15.93;8.40;;;6.50;99.90;;;;;;4469670;32;20189;-68
2022/03/29 03:37:14;;;;;;;15.83;8.40;;;6.50;99.90;;;;;;4467055;32;20180;-68
2022/03/29 03:39:41;;;;;;;17.07;8.67;;;6.50;99.90;;;;;;4468086;32;20177;-68
2022/03/29 03:42:11;;;;;;;17.30;9.13;;;6.60;99.90;;;;;;4467762;32;20178;-68
2022/03/29 03:44:39;;;;;;;15.97;8.67;;;6.60;99.90;;;;;;4466863;32;20169;-68
2022/03/29 03:47:10;;;;;;;18.27;8.50;;;6.60;99.90;;;;;;4469593;32;20168;-68
2022/03/29 03:49:38;;;;;;;16.37;7.90;;;6.60;99.90;;;;;;4468326;32;20201;-68
2022/03/29 03:52:07;;;;;;;16.97;8.37;;;6.60;99.90;;;;;;4466711;32;20428;-68
2022/03/29 03:54:35;;;;;;;17.30;8.93;;;6.60;99.90;;;;;;4467658;32;20229;-68
2022/03/29 03:57:04;;;;;;;16.77;8.57;;;6.50;99.90;;;;;;4469110;32;20210;-68
2022/03/29 03:59:32;;;;;;;18.43;8.57;;;6.40;99.90;;;;;;4466563;32;20211;-68
2022/03/29 04:01:59;;;;;;;16.43;9.23;;;6.50;99.90;;;;;;4467936;32;20169;-68
2022/03/29 04:04:27;;;;;;;17.20;8.83;;;6.40;99.90;;;;;;4467076;32;20174;-68
2022/03/29 04:06:54;;;;;;;17.97;9.43;;;6.40;99.90;;;;;;4468952;32;20149;-68
2022/03/29 04:09:21;;;;;;;15.00;8.70;;;6.40;99.90;;;;;;4467830;32;20181;-68
2022/03/29 04:11:48;;;;;;;15.30;9.30;;;6.40;99.90;;;;;;4467175;32;20204;-68
2022/03/29 04:14:16;;;;;;;18.13;10.03;;;6.30;99.90;;;;;;4467564;32;20210;-68
2022/03/29 04:16:42;;;;;;;15.93;9.00;;;6.20;99.90;;;;;;4467549;32;20186;-68
2022/03/29 04:19:10;;;;;;;17.03;9.60;;;6.20;99.90;;;;;;4468532;32;20202;-68
2022/03/29 04:21:37;;;;;;;17.00;9.67;;;6.10;99.90;;;;;;4468864;32;20142;-68
2022/03/29 04:24:05;;;;;;;21.17;10.10;;;6.00;99.90;;;;;;4467333;32;20182;-68
2022/03/29 04:26:32;;;;;;;19.90;10.10;;;6.00;99.90;;;;;;4466002;32;20177;-68
2022/03/29 04:28:59;;;;;;;18.20;9.77;;;5.90;99.90;;;;;;4466240;32;20173;-68
2022/03/29 04:31:26;;;;;;;19.53;10.13;;;5.80;99.90;;;;;;4466459;32;20241;-68
2022/03/29 04:33:53;;;;;;;17.57;10.03;;;5.70;99.90;;;;;;4465906;32;20179;-68
2022/03/29 04:36:20;;;;;;;17.50;10.00;;;5.70;99.90;;;;;;4466203;32;20177;-68
2022/03/29 04:38:47;;;;;;;20.23;10.33;;;5.70;99.90;;;;;;4456095;32;20204;-68
2022/03/29 04:41:14;;;;;;;21.33;10.93;;;5.70;99.90;;;;;;4456181;32;20188;-68
2022/03/29 04:43:41;;;;;;;19.17;9.83;;;5.80;99.90;;;;;;4457274;32;20130;-68
2022/03/29 04:46:08;;;;;;;20.17;10.17;;;5.80;99.90;;;;;;4455484;32;20293;-67
2022/03/29 04:48:35;;;;;;;24.40;10.47;;;5.90;99.90;;;;;;4456618;32;20248;-68
2022/03/29 04:51:03;;;;;;;21.23;10.70;;;6.00;99.90;;;;;;4457699;32;20168;-68
2022/03/29 04:53:30;;;;;;;19.23;10.60;;;6.00;99.90;;;;;;4456191;32;20423;-68
2022/03/29 04:55:57;;;;;;;20.73;10.73;;;5.90;99.90;;;;;;4457889;32;20168;-68
2022/03/29 04:58:25;;;;;;;20.97;9.67;;;6.00;99.90;;;;;;4456878;32;20147;-68
2022/03/29 05:00:53;;;;;;;22.27;10.73;;;6.00;99.90;;;;;;4454984;32;20181;-68
2022/03/29 05:03:20;;;;;;;20.53;10.67;;;6.00;99.90;;;;;;4454742;32;20173;-68
2022/03/29 05:05:47;;;;;;;25.70;11.20;;;5.90;99.90;;;;;;4454705;32;20265;-68
2022/03/29 05:08:14;;;;;;;21.73;10.70;;;5.90;99.90;;;;;;4455449;32;20227;-68
2022/03/29 05:10:41;;;;;;;21.43;10.33;;;5.90;99.90;;;;;;4454912;32;20189;-68
2022/03/29 05:13:09;;;;;;;18.43;9.73;;;6.00;99.90;;;;;;4450988;32;20230;-68
2022/03/29 05:15:36;;;;;;;18.47;9.93;;;6.10;99.90;;;;;;4442764;32;20201;-68
2022/03/29 05:18:04;;;;;;;18.70;10.20;;;6.20;99.90;;;;;;4441334;32;20229;-68
2022/03/29 05:20:31;;;;;;;19.87;11.30;;;6.10;99.90;;;;;;4441366;32;20170;-68
2022/03/29 05:22:59;;;;;;;17.80;9.90;;;6.10;99.90;;;;;;4439983;32;20289;-68
2022/03/29 05:25:26;;;;;;;19.37;10.40;;;6.10;99.90;;;;;;4439341;32;20176;-68
2022/03/29 05:27:55;;;;;;;21.00;10.27;;;6.10;99.90;;;;;;4439361;32;20169;-68
2022/03/29 05:30:22;;;;;;;18.03;9.90;;;6.10;99.90;;;;;;4440047;32;20244;-68
2022/03/29 05:32:57;;;;;;;17.10;10.47;;;6.20;99.90;;;;;;4438874;32;20216;-68
2022/03/29 05:35:29;;;;;;;17.77;10.10;;;6.10;99.90;;;;;;4440218;32;20173;-68
2022/03/29 05:37:58;;;;;;;23.17;11.03;;;6.10;99.90;;;;;;4441435;32;20141;-68
2022/03/29 05:40:26;;;;;;;25.07;10.83;;;6.00;99.90;;;;;;4440471;32;20226;-68
2022/03/29 05:42:53;;;;;;;21.03;11.30;;;6.00;99.90;;;;;;4442032;32;20181;-68
2022/03/29 05:45:20;;;;;;;20.73;10.73;;;5.90;99.90;;;;;;4439267;32;20186;-68
2022/03/29 05:50:33;;;;;;;24.33;11.13;;;6.00;99.90;;;;;;4438435;32;20219;-68
2022/03/29 05:53:02;;;;;;;23.00;12.10;;;6.20;99.90;;;;;;4439261;32;20440;-68
2022/03/29 05:55:29;;;;;;;26.53;12.27;;;6.20;99.90;;;;;;4439934;32;20268;-68
2022/03/29 05:57:56;;;;;;;28.30;12.30;;;6.20;99.90;;;;;;4439785;32;20208;-68
2022/03/29 06:00:25;;;;;;;21.97;11.63;;;6.20;99.90;;;;;;4440790;32;20164;-68
2022/03/29 06:02:55;;;;;;;22.43;12.37;;;6.20;99.90;;;;;;4441524;32;20147;-68
2022/03/29 06:05:22;;;;;;;26.80;12.67;;;6.20;99.90;;;;;;4440092;32;20408;-68
2022/03/29 06:07:50;;;;;;;22.77;12.23;;;6.20;99.90;;;;;;4438854;32;20247;-68
2022/03/29 06:10:17;;;;;;;23.17;12.50;;;6.20;99.90;;;;;;4444364;32;20233;-68
2022/03/29 06:12:46;;;;;;;24.67;13.50;;;6.20;99.90;;;;;;4448933;32;20371;-68
2022/03/29 06:15:15;;;;;;;27.03;13.30;;;6.20;99.90;;;;;;4441606;32;20580;-67
2022/03/29 06:17:42;;;;;;;28.50;12.87;;;6.10;99.90;;;;;;4446303;32;20411;-67
2022/03/29 06:20:10;;;;;;;26.63;13.60;;;5.90;99.90;;;;;;4438665;32;20197;-67
2022/03/29 06:22:44;;;;;;;24.23;13.47;;;6.10;99.90;;;;;;4438085;32;20163;-68
2022/03/29 06:25:12;;;;;;;24.57;13.67;;;6.20;99.90;;;;;;4438112;32;20236;-68
2022/03/29 06:27:41;;;;;;;28.37;14.37;;;6.20;99.90;;;;;;4439000;32;20248;-68
2022/03/29 06:30:10;;;;;;;28.53;14.13;;;6.10;99.90;;;;;;4438715;32;20217;-68
2022/03/29 06:32:48;;;;;;;30.30;15.53;;;6.10;99.90;;;;;;4438165;32;20197;-67
2022/03/29 06:35:22;;;;;;;30.97;14.57;;;6.10;99.90;;;;;;4439615;32;20139;-67
2022/03/29 06:37:55;;;;;;;31.00;16.17;;;6.10;99.90;;;;;;4441120;32;20200;-68
2022/03/29 06:40:23;;;;;;;33.23;17.03;;;6.10;99.90;;;;;;4441127;32;20185;-68
2022/03/29 06:42:51;;;;;;;32.17;17.17;;;6.20;99.90;;;;;;4446052;32;20412;-68
2022/03/29 06:45:19;;;;;;;34.50;17.33;;;6.10;99.90;;;;;;4437929;32;20214;-68
2022/03/29 06:47:46;;;;;;;33.77;17.80;;;6.00;99.90;;;;;;4440804;32;20149;-67
2022/03/29 06:50:13;;;;;;;32.83;17.40;;;6.10;99.90;;;;;;4443099;32;20485;-68
2022/03/29 06:52:44;;;;;;;37.77;18.80;;;6.10;99.90;;;;;;4453954;32;20209;-67
2022/03/29 06:55:13;;;;;;;44.97;21.83;;;6.20;99.90;;;;;;4453723;32;20186;-68
2022/03/29 06:57:40;;;;;;;43.23;21.53;;;6.40;99.90;;;;;;4452148;32;20258;-68
2022/03/29 07:00:09;;;;;;;45.33;23.03;;;6.50;99.90;;;;;;4453590;32;20172;-68
2022/03/29 07:02:37;;;;;;;48.37;23.23;;;6.30;99.90;;;;;;4452149;32;20186;-67
2022/03/29 07:05:04;;;;;;;46.20;24.03;;;6.30;99.90;;;;;;4452501;32;20239;-68
2022/03/29 07:07:31;;;;;;;50.40;25.23;;;6.20;99.90;;;;;;4452955;32;20177;-68
2022/03/29 07:12:52;;;;;;;50.40;23.77;;;6.20;99.90;;;;;;4453902;32;20180;-68
2022/03/29 07:15:21;;;;;;;50.73;24.67;;;6.20;99.90;;;;;;4453665;32;20175;-67
2022/03/29 07:17:48;;;;;;;51.07;24.47;;;6.10;99.90;;;;;;4451829;32;20170;-68
2022/03/29 07:20:16;;;;;;;46.83;24.90;;;6.10;99.90;;;;;;4454542;32;20213;-68
2022/03/29 07:22:47;;;;;;;47.43;25.33;;;6.10;99.90;;;;;;4453365;32;20212;-68
2022/03/29 07:25:18;;;;;;;54.93;25.57;;;6.10;99.90;;;;;;4451752;32;20450;-68
2022/03/29 07:27:45;;;;;;;54.10;24.87;;;6.10;99.90;;;;;;4452566;32;20177;-68
2022/03/29 07:30:13;;;;;;;54.23;25.10;;;6.20;99.90;;;;;;4448816;32;20178;-67
2022/03/29 07:32:48;;;;;;;49.23;25.63;;;6.20;99.90;;;;;;4452653;32;20208;-67
2022/03/29 07:35:17;;;;;;;45.50;25.20;;;6.30;99.90;;;;;;4453584;32;20210;-67
2022/03/29 07:37:45;;;;;;;52.20;24.87;;;6.30;99.90;;;;;;4451894;32;20169;-67
2022/03/29 07:40:14;;;;;;;54.70;25.07;;;6.20;99.90;;;;;;4451571;32;20172;-67
2022/03/29 07:42:41;;;;;;;46.77;24.07;;;6.20;99.90;;;;;;4452247;32;20234;-68
2022/03/29 07:45:12;;;;;;;45.83;23.30;;;6.20;99.90;;;;;;4452504;32;20403;-68
2022/03/29 07:47:43;;;;;;;44.60;23.73;;;6.40;99.90;;;;;;4453034;32;20169;-67
2022/03/29 07:50:33;;;;;;;49.97;23.67;;;6.40;99.90;;;;;;4451599;32;20221;-67
2022/03/29 07:53:05;;;;;;;43.27;22.80;;;6.40;99.90;;;;;;4453699;32;20385;-68
2022/03/29 07:55:34;;;;;;;44.10;21.47;;;6.40;99.90;;;;;;4452840;32;20622;-67
2022/03/29 07:58:17;;;;;;;42.63;22.13;;;6.50;99.90;;;;;;4451918;32;20189;-67
2022/03/29 08:00:44;;;;;;;41.33;21.57;;;6.30;99.90;;;;;;4451867;32;20190;-68
2022/03/29 08:03:15;;;;;;;41.97;21.00;;;6.60;99.90;;;;;;4447591;32;20175;-68
2022/03/29 08:05:44;;;;;;;42.70;20.80;;;6.60;99.90;;;;;;4451846;32;20182;-67
2022/03/29 08:08:13;;;;;;;40.50;20.83;;;6.70;99.90;;;;;;4453345;32;20538;-68
2022/03/29 08:10:42;;;;;;;42.07;21.13;;;6.80;99.90;;;;;;4451824;32;20166;-68
2022/03/29 08:13:10;;;;;;;38.67;22.20;;;7.00;99.90;;;;;;4454182;32;20230;-67
2022/03/29 08:15:39;;;;;;;42.10;22.57;;;7.00;99.90;;;;;;4454503;32;20196;-67
2022/03/29 08:18:07;;;;;;;50.53;24.27;;;7.10;99.90;;;;;;4454553;32;20224;-67
2022/03/29 08:20:35;;;;;;;48.00;24.80;;;7.00;99.90;;;;;;4455173;32;20213;-68
2022/03/29 08:23:03;;;;;;;47.03;23.83;;;7.10;99.90;;;;;;4456755;32;20529;-68
2022/03/29 08:25:32;;;;;;;45.77;23.73;;;7.20;99.90;;;;;;4455409;32;20573;-68
2022/03/29 08:28:00;;;;;;;47.40;24.53;;;7.30;99.90;;;;;;4456025;32;20233;-68
2022/03/29 08:30:28;;;;;;;50.57;25.10;;;7.30;99.90;;;;;;4455463;32;20250;-68
2022/03/29 08:32:57;;;;;;;51.23;27.07;;;7.40;99.90;;;;;;4453998;32;20167;-68
2022/03/29 08:35:30;;;;;;;50.97;26.93;;;7.70;99.90;;;;;;4454086;32;20186;-68
2022/03/29 08:37:57;;;;;;;52.83;27.47;;;7.80;99.90;;;;;;4455544;32;20182;-67
2022/03/29 08:40:45;;;;;;;50.10;26.47;;;7.70;99.90;;;;;;4453909;32;20170;-68
2022/03/29 08:43:15;;;;;;;51.97;27.80;;;7.70;99.90;;;;;;4455711;32;20197;-70
2022/03/29 08:45:47;;;;;;;57.20;28.43;;;7.70;99.90;;;;;;4454233;32;20174;-67
2022/03/29 08:48:15;;;;;;;57.10;27.60;;;7.60;99.90;;;;;;4454021;32;20182;-69
2022/03/29 08:50:43;;;;;;;60.33;28.70;;;7.60;99.90;;;;;;4455512;32;20185;-67
2022/03/29 08:53:12;;;;;;;54.73;28.00;;;7.60;99.90;;;;;;4455412;32;20204;-67
2022/03/29 08:55:42;;;;;;;54.00;27.70;;;7.80;99.90;;;;;;4455356;32;20197;-68
2022/03/29 08:58:14;;;;;;;51.07;27.40;;;7.90;99.90;;;;;;4454974;32;20204;-67
2022/03/29 09:00:42;;;;;;;47.23;25.63;;;8.20;99.90;;;;;;4456468;32;20185;-67
2022/03/29 09:03:10;;;;;;;48.97;24.67;;;8.20;99.90;;;;;;4454872;32;20219;-67
2022/03/29 09:05:37;;;;;;;55.83;25.97;;;8.30;99.90;;;;;;4454994;32;20226;-67
2022/03/29 09:08:13;;;;;;;46.57;23.93;;;8.20;99.90;;;;;;4455258;32;20188;-67
2022/03/29 09:10:44;;;;;;;44.00;22.70;;;8.30;99.90;;;;;;4456889;32;20455;-67
2022/03/29 09:13:29;;;;;;;42.53;22.83;;;8.30;99.90;;;;;;4455422;32;20177;-68
2022/03/29 09:15:58;;;;;;;39.73;21.40;;;8.20;99.90;;;;;;4454806;32;20237;-68
2022/03/29 09:18:26;;;;;;;42.63;20.93;;;8.20;99.90;;;;;;4455501;32;20173;-69
2022/03/29 09:21:15;;;;;;;38.23;21.00;;;8.20;99.90;;;;;;4454514;32;20608;-68
2022/03/29 09:23:44;;;;;;;38.10;19.53;;;8.30;99.90;;;;;;4454526;32;20212;-69
2022/03/29 09:26:28;;;;;;;34.70;19.67;;;8.50;99.90;;;;;;4454442;32;20182;-68
2022/03/29 09:28:54;;;;;;;37.67;18.20;;;8.70;99.90;;;;;;4455472;32;20390;-67
2022/03/29 09:31:23;;;;;;;35.13;19.07;;;8.70;99.90;;;;;;4456144;32;20192;-68
2022/03/29 09:33:51;;;;;;;33.20;18.37;;;8.90;99.90;;;;;;4456252;32;20174;-67
2022/03/29 09:36:20;;;;;;;35.17;17.90;;;9.60;99.90;;;;;;4454352;32;20166;-68
2022/03/29 09:38:51;;;;;;;34.67;18.57;;;9.70;99.90;;;;;;4457336;32;20176;-68
2022/03/29 09:41:21;;;;;;;31.37;18.23;;;10.00;99.90;;;;;;4456210;32;20169;-68
2022/03/29 09:44:06;;;;;;;30.80;17.53;;;10.50;99.90;;;;;;4454726;32;20437;-68
2022/03/29 09:46:56;;;;;;;33.33;18.17;;;10.90;99.90;;;;;;4449776;32;20194;-68
2022/03/29 09:49:23;;;;;;;30.60;17.20;;;10.40;99.90;;;;;;4443949;32;20182;-68
2022/03/29 09:52:09;;;;;;;31.27;15.63;;;10.20;99.90;;;;;;4439026;32;20445;-68
2022/03/29 09:54:37;;;;;;;31.70;16.37;;;9.90;99.90;;;;;;4438724;32;20217;-67
2022/03/29 09:57:04;;;;;;;30.93;15.80;;;9.60;99.90;;;;;;4438772;32;20248;-68
2022/03/29 09:59:32;;;;;;;30.00;16.23;;;9.50;99.90;;;;;;4439361;32;20496;-68
2022/03/29 10:01:59;;;;;;;29.87;16.20;;;9.50;99.90;;;;;;4440699;32;20392;-68
2022/03/29 10:04:30;;;;;;;30.17;16.63;;;9.70;99.90;;;;;;4438391;32;20536;-68
2022/03/29 10:07:03;;;;;;;27.53;15.67;;;9.70;99.90;;;;;;4437759;32;20197;-67
2022/03/29 10:09:33;;;;;;;30.57;16.57;;;9.60;99.90;;;;;;4440278;32;20221;-68
2022/03/29 10:12:07;;;;;;;31.43;17.20;;;9.40;99.90;;;;;;4439519;32;20206;-69
2022/03/29 10:14:36;;;;;;;28.97;16.17;;;9.20;99.90;;;;;;4439742;32;20189;-68
2022/03/29 10:17:07;;;;;;;32.27;16.20;;;9.10;99.90;;;;;;4439912;32;20433;-68
2022/03/29 10:19:35;;;;;;;28.30;15.07;;;9.00;99.90;;;;;;4438561;32;20177;-68
2022/03/29 10:22:03;;;;;;;32.80;16.37;;;8.90;99.90;;;;;;4439514;32;20170;-68
2022/03/29 10:24:31;;;;;;;31.60;15.87;;;8.90;99.90;;;;;;4440644;32;20154;-68
2022/03/29 10:27:01;;;;;;;33.60;16.13;;;8.90;99.90;;;;;;4439288;32;20163;-68
2022/03/29 10:29:29;;;;;;;31.27;15.47;;;8.80;99.90;;;;;;4438182;32;20174;-68
2022/03/29 10:32:02;;;;;;;31.67;16.27;;;8.70;99.90;;;;;;4439054;32;20270;-67
2022/03/29 10:34:31;;;;;;;27.37;15.03;;;8.60;99.90;;;;;;4438223;32;20206;-67
2022/03/29 10:37:14;;;;;;;29.97;15.33;;;8.50;99.90;;;;;;4440746;32;20147;-68
2022/03/29 10:39:45;;;;;;;30.63;15.63;;;8.50;99.90;;;;;;4443608;32;20467;-67
2022/03/29 10:42:36;;;;;;;31.20;15.77;;;8.50;99.90;;;;;;4455876;32;20489;-67
2022/03/29 10:45:09;;;;;;;29.63;15.57;;;8.60;99.90;;;;;;4453772;32;20162;-68
2022/03/29 10:47:59;;;;;;;32.93;15.50;;;8.50;99.90;;;;;;4453309;32;20219;-68
2022/03/29 10:50:54;;;;;;;27.70;15.07;;;8.50;99.90;;;;;;4453406;32;20224;-68
2022/03/29 10:53:31;;;;;;;31.37;15.17;;;8.50;99.90;;;;;;4454550;32;20415;-68
2022/03/29 10:56:23;;;;;;;29.27;14.60;;;8.50;99.90;;;;;;4455288;32;20224;-68
2022/03/29 10:59:02;;;;;;;27.20;14.60;;;8.60;99.90;;;;;;4453341;32;20555;-67
2022/03/29 11:01:30;;;;;;;22.50;13.40;;;8.50;99.90;;;;;;4454489;32;20265;-68
2022/03/29 11:04:02;;;;;;;27.27;14.57;;;8.60;99.90;;;;;;4454508;32;20178;-68
2022/03/29 11:06:29;;;;;;;26.23;14.03;;;8.60;99.90;;;;;;4454500;32;20532;-68
2022/03/29 11:09:26;;;;;;;29.57;14.20;;;8.60;99.90;;;;;;4454399;32;20200;-68
2022/03/29 11:11:53;;;;;;;23.43;12.60;;;8.70;99.90;;;;;;4378699;32;20198;-67
2022/03/29 11:14:33;;;;;;;24.53;12.90;;;8.70;99.90;;;;;;4378438;32;20506;-67
2022/03/29 11:17:09;;;;;;;32.77;14.27;;;8.60;99.90;;;;;;4391400;32;20163;-67
2022/03/29 11:19:39;;;;;;;27.27;13.93;;;8.60;99.90;;;;;;4377989;32;20217;-67
2022/03/29 11:22:25;;;;;;;27.53;14.77;;;8.60;99.90;;;;;;4378458;32;20426;-68
2022/03/29 11:24:58;;;;;;;25.70;14.37;;;8.60;99.90;;;;;;4391234;32;20155;-68
2022/03/29 11:27:33;;;;;;;27.97;14.67;;;8.60;99.90;;;;;;4379357;32;20171;-68
2022/03/29 11:30:07;;;;;;;27.93;14.83;;;8.80;99.90;;;;;;4376119;32;20218;-68
2022/03/29 11:32:35;;;;;;;26.03;13.60;;;9.30;99.90;;;;;;4371516;32;20228;-68
2022/03/29 11:35:04;;;;;;;25.27;13.20;;;9.60;99.90;;;;;;4392969;32;20152;-68
2022/03/29 11:37:37;;;;;;;25.47;13.27;;;9.50;99.90;;;;;;4378259;32;20175;-68
2022/03/29 11:40:06;;;;;;;25.27;13.63;;;9.60;99.90;;;;;;4379088;32;20179;-68
2022/03/29 11:42:49;;;;;;;24.10;14.57;;;9.40;99.90;;;;;;4378375;32;20466;-68
2022/03/29 11:45:18;;;;;;;24.70;13.40;;;9.40;99.90;;;;;;4379026;32;20198;-69
2022/03/29 11:48:04;;;;;;;24.23;14.10;;;9.40;99.90;;;;;;4393518;32;20212;-67
2022/03/29 11:50:38;;;;;;;27.27;13.97;;;9.20;99.90;;;;;;4440811;32;20242;-67
2022/03/29 11:53:30;;;;;;;26.67;13.97;;;9.10;99.90;;;;;;4441833;32;20146;-67
2022/03/29 11:56:03;;;;;;;26.00;13.47;;;9.10;99.90;;;;;;4441041;32;20171;-66
2022/03/29 11:58:36;;;;;;;29.43;13.67;;;9.00;99.90;;;;;;4440519;32;20267;-66
2022/03/29 12:01:12;;;;;;;24.10;13.07;;;9.00;99.90;;;;;;4440284;32;20158;-68
2022/03/29 12:03:41;;;;;;;23.17;12.67;;;9.00;99.90;;;;;;4440429;32;20200;-66
2022/03/29 12:06:20;;;;;;;25.80;12.87;;;9.00;99.90;;;;;;4440864;32;20243;-66
2022/03/29 12:08:53;;;;;;;27.60;14.00;;;8.90;99.90;;;;;;4440203;32;20178;-66
2022/03/29 12:11:24;;;;;;;25.23;13.07;;;8.80;99.90;;;;;;4440234;32;20602;-66
2022/03/29 12:14:08;;;;;;;24.30;12.87;;;8.90;99.90;;;;;;4441044;32;20178;-67
2022/03/29 12:16:39;;;;;;;29.27;13.57;;;8.80;99.90;;;;;;4441919;32;20401;-66
2022/03/29 12:19:17;;;;;;;23.33;11.50;;;8.80;99.90;;;;;;4441860;32;20145;-67
2022/03/29 12:21:49;;;;;;;24.27;11.50;;;8.70;99.90;;;;;;4440605;32;20177;-67
2022/03/29 12:24:23;;;;;;;21.07;11.07;;;8.60;99.90;;;;;;4441107;32;20504;-69
2022/03/29 12:26:55;;;;;;;21.30;11.33;;;8.70;99.90;;;;;;4441357;32;20296;-67
2022/03/29 12:29:24;;;;;;;20.70;10.37;;;8.60;99.90;;;;;;4440307;32;20187;-68
2022/03/29 12:31:52;;;;;;;19.77;10.93;;;8.60;99.90;;;;;;4441417;32;20183;-67
2022/03/29 12:34:23;;;;;;;20.00;10.30;;;8.60;99.90;;;;;;4449574;32;20181;-66
2022/03/29 12:36:53;;;;;;;22.27;10.77;;;8.60;99.90;;;;;;4442663;32;20232;-67
2022/03/29 12:39:20;;;;;;;23.50;10.87;;;8.70;99.90;;;;;;4442905;32;20146;-66
2022/03/29 12:41:52;;;;;;;19.03;10.20;;;8.70;99.90;;;;;;4441541;32;20170;-67
2022/03/29 12:44:32;;;;;;;25.17;11.50;;;8.70;99.90;;;;;;4442306;32;20191;-67
2022/03/29 12:46:59;;;;;;;22.30;11.80;;;8.70;99.90;;;;;;4442589;32;20146;-67
2022/03/29 12:49:28;;;;;;;25.80;11.13;;;8.70;99.90;;;;;;4441374;32;20209;-67
2022/03/29 12:51:59;;;;;;;20.10;11.80;;;8.70;99.90;;;;;;4440145;32;20427;-67
2022/03/29 12:54:44;;;;;;;22.07;12.20;;;8.70;99.90;;;;;;4440074;32;20186;-67
2022/03/29 12:57:14;;;;;;;26.13;12.43;;;8.70;99.90;;;;;;4441611;32;20170;-67
2022/03/29 12:59:45;;;;;;;22.23;12.00;;;8.70;99.90;;;;;;4439468;32;20170;-67
2022/03/29 13:02:21;;;;;;;23.60;12.03;;;8.70;99.90;;;;;;4439583;32;20554;-67
2022/03/29 13:04:53;;;;;;;22.33;12.20;;;8.70;99.90;;;;;;4439568;32;20200;-69
2022/03/29 13:07:41;;;;;;;24.83;11.37;;;8.70;99.90;;;;;;4439991;32;20198;-68